createdAt,value
2023-02-01T00:04:55.342Z,1.00
2023-02-01T00:14:43.569Z,0.80
2023-02-01T00:22:04.655Z,1.20
2023-02-01T00:26:58.648Z,0.90
2023-02-01T00:31:53.398Z,0.80
2023-02-01T00:36:48.322Z,0.80
2023-02-01T00:39:15.911Z,1.50
2023-02-01T00:53:59.530Z,1.20
2023-02-01T00:56:28.523Z,1.10
2023-02-01T01:01:27.921Z,1.00
2023-02-01T01:06:32.302Z,1.10
2023-02-01T01:23:48.242Z,1.00
2023-02-01T01:26:18.120Z,0.90
2023-02-01T01:28:45.233Z,1.00
2023-02-01T01:31:13.741Z,0.90
2023-02-01T01:33:40.847Z,0.90
2023-02-01T01:44:01.678Z,1.10
2023-02-01T01:51:30.036Z,1.00
2023-02-01T01:56:52.107Z,1.00
2023-02-01T01:59:20.678Z,1.10
2023-02-01T02:04:15.420Z,2.10
2023-02-01T02:14:12.555Z,1.40
2023-02-01T02:16:53.146Z,1.40
2023-02-01T02:19:44.836Z,1.40
2023-02-01T02:24:52.660Z,1.30
2023-02-01T02:27:25.798Z,1.50
2023-02-01T02:30:29.952Z,1.80
2023-02-01T02:33:42.762Z,1.40
2023-02-01T02:36:50.662Z,1.50
2023-02-01T02:39:28.409Z,1.40
2023-02-01T02:42:29.353Z,1.50
2023-02-01T02:45:35.432Z,1.50
2023-02-01T02:48:11.800Z,1.50
2023-02-01T02:51:03.834Z,1.50
2023-02-01T02:53:55.401Z,1.70
2023-02-01T02:56:43.177Z,1.60
2023-02-01T02:59:32.416Z,1.50
2023-02-01T03:02:18.491Z,1.60
2023-02-01T03:04:45.407Z,1.50
2023-02-01T03:07:34.751Z,1.50
2023-02-01T03:10:06.556Z,2.60
2023-02-01T03:12:56.522Z,0.20
2023-02-01T03:15:43.394Z,1.70
2023-02-01T03:18:32.311Z,2.00
2023-02-01T03:21:04.593Z,1.60
2023-02-01T03:23:36.018Z,1.40
2023-02-01T03:26:04.022Z,1.50
2023-02-01T03:28:34.635Z,1.50
2023-02-01T03:31:02.646Z,1.30
2023-02-01T03:33:31.503Z,1.30
2023-02-01T03:36:19.359Z,1.20
2023-02-01T03:38:51.795Z,1.10
2023-02-01T03:41:51.033Z,1.20
2023-02-01T03:44:23.579Z,1.20
2023-02-01T03:47:01.017Z,1.20
2023-02-01T03:49:35.481Z,1.20
2023-02-01T03:52:05.197Z,1.30
2023-02-01T03:57:03.685Z,1.30
2023-02-01T03:59:31.243Z,1.40
2023-02-01T04:01:58.034Z,1.30
2023-02-01T04:06:52.591Z,1.30
2023-02-01T04:24:03.322Z,1.50
2023-02-01T04:33:58.612Z,1.40
2023-02-01T04:36:25.620Z,1.50
2023-02-01T04:38:53.018Z,1.40
2023-02-01T04:41:20.841Z,1.40
2023-02-01T04:43:48.664Z,1.40
2023-02-01T04:56:07.151Z,1.40
2023-02-01T05:01:05.653Z,1.60
2023-02-01T05:03:36.404Z,1.30
2023-02-01T05:16:16.880Z,1.50
2023-02-01T05:18:43.678Z,1.40
2023-02-01T05:23:57.780Z,1.50
2023-02-01T05:28:52.428Z,1.60
2023-02-01T05:31:19.673Z,1.60
2023-02-01T05:38:41.214Z,1.50
2023-02-01T05:41:08.183Z,1.70
2023-02-01T05:46:02.337Z,1.50
2023-02-01T05:48:29.199Z,1.50
2023-02-01T05:55:50.953Z,1.60
2023-02-01T05:58:17.742Z,1.60
2023-02-01T06:03:12.387Z,1.50
2023-02-01T06:05:40.216Z,1.40
2023-02-01T06:10:36.016Z,1.60
2023-02-01T06:17:59.455Z,1.60
2023-02-01T06:22:53.765Z,1.70
2023-02-01T06:27:49.423Z,1.80
2023-02-01T06:30:16.390Z,1.80
2023-02-01T06:35:16.968Z,1.70
2023-02-01T06:52:29.051Z,1.80
2023-02-01T06:54:56.826Z,1.80
2023-02-01T06:59:51.205Z,1.80
2023-02-01T07:02:18.041Z,2.00
2023-02-01T07:07:13.171Z,2.50
2023-02-01T07:09:40.056Z,2.00
2023-02-01T07:14:34.332Z,2.10
2023-02-01T07:17:01.128Z,2.20
2023-02-01T07:19:28.325Z,2.10
2023-02-01T07:21:55.173Z,2.10
2023-02-01T07:26:49.966Z,2.00
2023-02-01T07:29:16.818Z,2.10
2023-02-01T07:36:38.167Z,2.20
2023-02-01T07:39:05.278Z,2.10
2023-02-01T07:43:59.695Z,2.40
2023-02-01T07:56:18.141Z,2.40
2023-02-01T07:58:51.699Z,2.40
2023-02-01T08:01:22.175Z,2.40
2023-02-01T08:03:50.491Z,2.40
2023-02-01T08:16:10.003Z,2.60
2023-02-01T08:21:18.248Z,2.70
2023-02-01T08:23:45.856Z,2.80
2023-02-01T08:26:15.630Z,2.90
2023-02-01T08:28:49.063Z,3.10
2023-02-01T08:31:17.887Z,3.30
2023-02-01T08:33:49.001Z,3.40
2023-02-01T08:36:15.846Z,3.20
2023-02-01T08:41:12.844Z,2.60
2023-02-01T08:43:40.147Z,3.10
2023-02-01T08:46:07.881Z,3.00
2023-02-01T08:48:35.575Z,3.40
2023-02-01T08:51:04.426Z,3.20
2023-02-01T08:53:31.377Z,3.00
2023-02-01T08:55:58.767Z,3.00
2023-02-01T08:58:25.836Z,3.00
2023-02-01T09:05:49.964Z,3.00
2023-02-01T09:08:17.505Z,3.10
2023-02-01T09:20:34.519Z,3.20
2023-02-01T09:40:16.885Z,3.20
2023-02-01T09:45:32.830Z,3.10
2023-02-01T09:48:04.832Z,3.30
2023-02-01T09:50:41.630Z,3.40
2023-02-01T09:53:24.160Z,3.50
2023-02-01T09:55:54.252Z,3.90
2023-02-01T09:58:57.424Z,4.00
2023-02-01T10:01:27.036Z,3.90
2023-02-01T10:04:06.471Z,3.60
2023-02-01T10:07:07.819Z,3.60
2023-02-01T10:09:59.569Z,3.20
2023-02-01T10:13:15.110Z,3.10
2023-02-01T10:18:35.018Z,3.00
2023-02-01T10:21:44.918Z,2.90
2023-02-01T10:24:31.220Z,2.90
2023-02-01T10:27:15.349Z,2.60
2023-02-01T10:29:47.260Z,3.00
2023-02-01T10:32:22.765Z,2.50
2023-02-01T10:34:57.523Z,2.40
2023-02-01T10:37:33.265Z,2.40
2023-02-01T10:40:11.410Z,2.60
2023-02-01T10:45:06.739Z,2.80
2023-02-01T10:50:36.098Z,3.10
2023-02-01T10:53:32.131Z,2.90
2023-02-01T10:55:59.145Z,2.60
2023-02-01T10:58:33.800Z,2.80
2023-02-01T11:01:07.362Z,2.70
2023-02-01T11:03:56.897Z,2.90
2023-02-01T11:06:30.949Z,3.10
2023-02-01T11:09:25.714Z,3.40
2023-02-01T11:14:28.866Z,3.70
2023-02-01T11:21:59.443Z,3.90
2023-02-01T11:24:33.948Z,3.90
2023-02-01T11:27:06.697Z,3.80
2023-02-01T11:29:40.122Z,3.80
2023-02-01T11:32:10.126Z,3.70
2023-02-01T11:34:46.845Z,3.70
2023-02-01T11:37:26.525Z,3.70
2023-02-01T11:40:02.407Z,3.70
2023-02-01T11:42:30.763Z,3.80
2023-02-01T11:45:21.557Z,3.90
2023-02-01T11:47:53.657Z,3.80
2023-02-01T11:50:30.854Z,3.80
2023-02-01T11:53:15.622Z,4.60
2023-02-01T11:56:07.846Z,3.70
2023-02-01T11:59:03.896Z,3.50
2023-02-01T12:01:45.620Z,3.70
2023-02-01T12:04:58.632Z,3.60
2023-02-01T12:07:58.815Z,3.60
2023-02-01T12:13:30.177Z,3.60
2023-02-01T12:16:14.922Z,3.50
2023-02-01T12:18:59.714Z,4.50
2023-02-01T12:22:08.572Z,3.40
2023-02-01T12:25:01.658Z,3.50
2023-02-01T12:30:29.269Z,3.40
2023-02-01T12:33:41.567Z,3.40
2023-02-01T12:36:17.142Z,3.60
2023-02-01T12:38:49.752Z,3.60
2023-02-01T12:41:22.299Z,3.50
2023-02-01T12:44:00.756Z,3.50
2023-02-01T12:46:46.222Z,3.60
2023-02-01T12:51:45.133Z,3.60
2023-02-01T12:54:28.006Z,3.70
2023-02-01T12:57:13.654Z,3.70
2023-02-01T12:59:47.724Z,3.70
2023-02-01T13:02:47.026Z,3.70
2023-02-01T13:05:38.361Z,3.80
2023-02-01T13:08:11.473Z,3.70
2023-02-01T13:10:44.215Z,3.70
2023-02-01T13:13:19.973Z,3.50
2023-02-01T13:18:21.343Z,2.40
2023-02-01T13:20:59.802Z,3.10
2023-02-01T13:23:32.673Z,3.10
2023-02-01T13:28:45.809Z,3.00
2023-02-01T13:31:34.463Z,3.00
2023-02-01T13:34:22.685Z,3.00
2023-02-01T13:39:32.864Z,3.00
2023-02-01T13:42:04.117Z,3.10
2023-02-01T13:47:01.518Z,3.10
2023-02-01T13:49:32.602Z,3.10
2023-02-01T13:52:00.482Z,3.00
2023-02-01T13:54:39.673Z,3.00
2023-02-01T13:57:26.548Z,3.00
2023-02-01T13:59:55.928Z,3.00
2023-02-01T14:02:48.673Z,3.00
2023-02-01T14:05:25.013Z,3.10
2023-02-01T14:08:14.283Z,3.00
2023-02-01T14:11:00.517Z,3.10
2023-02-01T14:13:39.050Z,3.10
2023-02-01T14:18:42.106Z,3.10
2023-02-01T14:21:31.159Z,3.00
2023-02-01T14:26:46.214Z,3.10
2023-02-01T14:29:20.911Z,3.00
2023-02-01T14:32:26.539Z,3.00
2023-02-01T14:34:58.182Z,3.00
2023-02-01T14:37:32.566Z,2.90
2023-02-01T14:40:04.540Z,3.00
2023-02-01T14:42:45.127Z,3.00
2023-02-01T14:45:24.673Z,3.00
2023-02-01T14:48:07.232Z,3.00
2023-02-01T14:53:14.063Z,3.10
2023-02-01T14:55:50.580Z,3.00
2023-02-01T14:58:20.811Z,2.90
2023-02-01T15:00:54.756Z,3.20
2023-02-01T15:03:48.364Z,3.30
2023-02-01T15:06:30.258Z,2.90
2023-02-01T15:09:15.112Z,2.90
2023-02-01T15:12:03.519Z,2.90
2023-02-01T15:14:36.587Z,3.00
2023-02-01T15:17:04.269Z,2.90
2023-02-01T15:19:31.735Z,2.70
2023-02-01T15:21:59.868Z,2.90
2023-02-01T15:24:29.322Z,2.90
2023-02-01T15:26:57.516Z,2.90
2023-02-01T15:29:33.357Z,2.90
2023-02-01T15:32:00.979Z,3.00
2023-02-01T15:34:48.741Z,3.00
2023-02-01T15:37:17.259Z,3.00
2023-02-01T15:40:18.906Z,3.00
2023-02-01T15:43:04.023Z,2.80
2023-02-01T15:45:33.701Z,2.80
2023-02-01T15:48:01.114Z,2.90
2023-02-01T15:50:31.033Z,2.80
2023-02-01T15:55:38.279Z,2.80
2023-02-01T15:58:10.157Z,3.20
2023-02-01T16:00:46.255Z,2.80
2023-02-01T16:03:45.924Z,2.80
2023-02-01T16:06:21.657Z,2.80
2023-02-01T16:09:13.119Z,2.70
2023-02-01T16:11:48.842Z,2.50
2023-02-01T16:16:43.513Z,2.60
2023-02-01T16:21:38.276Z,2.40
2023-02-01T16:24:06.836Z,2.60
2023-02-01T16:31:38.046Z,2.40
2023-02-01T16:34:06.640Z,2.60
2023-02-01T16:36:34.637Z,2.50
2023-02-01T16:43:58.013Z,2.50
2023-02-01T16:46:31.025Z,2.50
2023-02-01T16:48:59.013Z,2.60
2023-02-01T16:51:29.291Z,2.50
2023-02-01T16:56:30.502Z,2.20
2023-02-01T16:58:58.381Z,2.50
2023-02-01T17:06:26.252Z,2.30
2023-02-01T17:08:56.077Z,2.30
2023-02-01T17:11:23.014Z,3.00
2023-02-01T17:16:20.270Z,2.50
2023-02-01T17:18:58.418Z,2.30
2023-02-01T17:21:27.984Z,2.30
2023-02-01T17:23:55.675Z,2.20
2023-02-01T17:26:22.616Z,2.40
2023-02-01T17:28:49.822Z,2.40
2023-02-01T17:31:17.511Z,2.40
2023-02-01T17:33:45.248Z,2.30
2023-02-01T17:36:16.972Z,2.20
2023-02-01T17:38:48.801Z,2.20
2023-02-01T17:43:49.636Z,2.20
2023-02-01T17:46:26.970Z,2.20
2023-02-01T17:51:25.045Z,2.20
2023-02-01T17:53:51.875Z,1.80
2023-02-01T17:56:21.796Z,2.00
2023-02-01T18:01:25.511Z,1.80
2023-02-01T18:03:52.402Z,2.10
2023-02-01T18:06:26.527Z,2.10
2023-02-01T18:08:54.328Z,2.10
2023-02-01T18:11:24.144Z,2.00
2023-02-01T18:13:53.983Z,2.10
2023-02-01T18:18:48.702Z,1.90
2023-02-01T18:21:21.334Z,2.00
2023-02-01T18:23:48.840Z,1.90
2023-02-01T18:26:18.647Z,-1.80
2023-02-01T18:31:32.508Z,1.80
2023-02-01T18:34:00.684Z,1.70
2023-02-01T18:36:30.545Z,1.60
2023-02-01T18:41:26.813Z,1.40
2023-02-01T18:46:22.939Z,1.40
2023-02-01T18:51:22.388Z,1.40
2023-02-01T18:56:20.923Z,1.40
2023-02-01T19:01:20.136Z,1.60
2023-02-01T19:08:48.114Z,1.60
2023-02-01T19:16:11.503Z,1.90
2023-02-01T19:21:08.060Z,1.50
2023-02-01T19:23:35.181Z,2.00
2023-02-01T19:28:29.199Z,2.20
2023-02-01T19:31:06.791Z,1.40
2023-02-01T19:36:05.361Z,1.70
2023-02-01T19:38:35.409Z,1.90
2023-02-01T19:41:02.367Z,2.00
2023-02-01T19:43:29.373Z,2.00
2023-02-01T19:45:57.602Z,1.70
2023-02-01T19:48:24.665Z,2.00
2023-02-01T19:50:51.502Z,2.00
2023-02-01T20:00:41.362Z,2.00
2023-02-01T20:08:03.962Z,2.00
2023-02-01T20:10:30.871Z,1.60
2023-02-01T20:15:27.133Z,1.90
2023-02-01T20:17:54.059Z,1.80
2023-02-01T20:25:16.292Z,2.00
2023-02-01T20:27:44.015Z,1.90
2023-02-01T20:40:05.479Z,1.90
2023-02-01T20:42:32.350Z,2.00
2023-02-01T20:49:53.753Z,2.00
2023-02-01T20:54:48.177Z,2.00
2023-02-01T20:59:42.842Z,1.90
2023-02-01T21:02:10.762Z,2.00
2023-02-01T21:04:40.170Z,1.90
2023-02-01T21:09:34.224Z,1.50
2023-02-01T21:19:25.308Z,1.90
2023-02-01T21:21:53.299Z,2.10
2023-02-01T21:29:15.997Z,2.00
2023-02-01T21:31:43.576Z,2.00
2023-02-01T21:34:10.782Z,2.00
2023-02-01T21:39:07.204Z,2.10
2023-02-01T21:41:56.387Z,2.10
2023-02-01T21:44:23.866Z,1.90
2023-02-01T21:59:10.645Z,2.40
2023-02-01T22:01:39.040Z,2.00
2023-02-01T22:06:39.632Z,2.20
2023-02-01T22:11:33.798Z,2.10
2023-02-01T22:14:00.580Z,2.00
2023-02-01T22:16:27.876Z,1.70
2023-02-01T22:23:54.227Z,1.60
2023-02-01T22:26:22.319Z,1.40
2023-02-01T22:33:46.839Z,1.60
2023-02-01T22:36:16.951Z,1.70
2023-02-01T22:38:45.045Z,1.70
2023-02-01T22:41:12.609Z,1.60
2023-02-01T22:46:12.109Z,1.70
2023-02-01T22:48:40.794Z,1.60
2023-02-01T22:51:11.963Z,1.70
2023-02-01T22:53:38.865Z,1.50
2023-02-01T22:56:07.362Z,1.30
2023-02-01T22:58:40.444Z,1.60
2023-02-01T23:01:08.219Z,1.60
2023-02-01T23:03:39.178Z,1.60
2023-02-01T23:06:07.468Z,1.60
2023-02-01T23:08:35.570Z,1.80
2023-02-01T23:11:09.541Z,1.80
2023-02-01T23:16:06.338Z,1.50
2023-02-01T23:21:09.996Z,1.50
2023-02-01T23:23:37.452Z,2.00
2023-02-01T23:26:04.891Z,1.70
2023-02-01T23:28:32.589Z,1.60
2023-02-01T23:33:27.663Z,1.70
2023-02-01T23:36:00.572Z,2.60
2023-02-01T23:38:28.488Z,1.80
2023-02-01T23:41:04.136Z,1.70
2023-02-01T23:43:51.357Z,5.40
2023-02-01T23:46:19.200Z,1.80
2023-02-01T23:48:47.561Z,1.60
2023-02-01T23:51:15.477Z,1.50
2023-02-01T23:56:26.664Z,1.60
2023-02-01T23:58:54.594Z,1.60
